sensor_id;sensor_type;location;lat;lon;timestamp;temperature;humidity
20057;DHT22;10189;49.546;7.906;2022-10-16T00:01:27;13.50;99.90
20057;DHT22;10189;49.546;7.906;2022-10-16T00:03:55;13.50;99.90
20057;DHT22;10189;49.546;7.906;2022-10-16T00:06:22;13.40;99.90
20057;DHT22;10189;49.546;7.906;2022-10-16T00:08:50;13.40;99.90
20057;DHT22;10189;49.546;7.906;2022-10-16T00:11:21;13.50;99.90
20057;DHT22;10189;49.546;7.906;2022-10-16T00:13:54;13.50;99.90
20057;DHT22;10189;49.546;7.906;2022-10-16T00:16:22;13.50;99.90
20057;DHT22;10189;49.546;7.906;2022-10-16T00:18:48;13.60;99.90
20057;DHT22;10189;49.546;7.906;2022-10-16T00:21:17;13.60;99.90
20057;DHT22;10189;49.546;7.906;2022-10-16T00:23:45;13.60;99.90
20057;DHT22;10189;49.546;7.906;2022-10-16T00:26:15;13.70;99.90
20057;DHT22;10189;49.546;7.906;2022-10-16T00:28:42;13.60;99.90
20057;DHT22;10189;49.546;7.906;2022-10-16T00:31:12;13.50;99.90
20057;DHT22;10189;49.546;7.906;2022-10-16T00:33:39;13.60;99.90
20057;DHT22;10189;49.546;7.906;2022-10-16T00:36:07;13.60;99.90
20057;DHT22;10189;49.546;7.906;2022-10-16T00:38:35;13.60;99.90
20057;DHT22;10189;49.546;7.906;2022-10-16T00:41:01;13.70;99.90
20057;DHT22;10189;49.546;7.906;2022-10-16T00:43:42;13.60;99.90
20057;DHT22;10189;49.546;7.906;2022-10-16T00:51:35;13.60;99.90
20057;DHT22;10189;49.546;7.906;2022-10-16T00:54:04;13.70;99.90
20057;DHT22;10189;49.546;7.906;2022-10-16T00:56:34;13.70;99.90
20057;DHT22;10189;49.546;7.906;2022-10-16T00:59:04;13.70;99.90
20057;DHT22;10189;49.546;7.906;2022-10-16T01:01:37;13.70;99.90
20057;DHT22;10189;49.546;7.906;2022-10-16T01:04:03;13.60;99.90
20057;DHT22;10189;49.546;7.906;2022-10-16T01:06:43;13.60;99.90
20057;DHT22;10189;49.546;7.906;2022-10-16T01:12:13;13.70;99.90
20057;DHT22;10189;49.546;7.906;2022-10-16T01:15:10;13.70;99.90
20057;DHT22;10189;49.546;7.906;2022-10-16T01:20:34;13.70;99.90
20057;DHT22;10189;49.546;7.906;2022-10-16T01:28:56;13.70;99.90
20057;DHT22;10189;49.546;7.906;2022-10-16T01:31:31;13.80;99.90
20057;DHT22;10189;49.546;7.906;2022-10-16T01:34:07;13.70;99.90
20057;DHT22;10189;49.546;7.906;2022-10-16T01:36:49;13.70;99.90
20057;DHT22;10189;49.546;7.906;2022-10-16T01:39:22;13.70;99.90
20057;DHT22;10189;49.546;7.906;2022-10-16T01:42:03;13.70;99.90
20057;DHT22;10189;49.546;7.906;2022-10-16T01:44:33;13.60;99.90
20057;DHT22;10189;49.546;7.906;2022-10-16T01:47:02;13.60;99.90
20057;DHT22;10189;49.546;7.906;2022-10-16T01:49:34;13.60;99.90
20057;DHT22;10189;49.546;7.906;2022-10-16T01:52:11;13.60;99.90
20057;DHT22;10189;49.546;7.906;2022-10-16T01:54:44;13.60;99.90
20057;DHT22;10189;49.546;7.906;2022-10-16T01:57:14;13.50;99.90
20057;DHT22;10189;49.546;7.906;2022-10-16T01:59:48;13.50;99.90
20057;DHT22;10189;49.546;7.906;2022-10-16T02:02:17;13.50;99.90
20057;DHT22;10189;49.546;7.906;2022-10-16T02:04:55;13.50;99.90
20057;DHT22;10189;49.546;7.906;2022-10-16T02:07:25;13.50;99.90
20057;DHT22;10189;49.546;7.906;2022-10-16T02:09:52;13.50;99.90
20057;DHT22;10189;49.546;7.906;2022-10-16T02:12:29;13.50;99.90
20057;DHT22;10189;49.546;7.906;2022-10-16T02:14:58;13.50;99.90
20057;DHT22;10189;49.546;7.906;2022-10-16T02:17:24;13.50;99.90
20057;DHT22;10189;49.546;7.906;2022-10-16T02:19:53;13.50;99.90
20057;DHT22;10189;49.546;7.906;2022-10-16T02:22:32;13.50;99.90
20057;DHT22;10189;49.546;7.906;2022-10-16T02:25:10;13.40;99.90
20057;DHT22;10189;49.546;7.906;2022-10-16T02:33:22;13.50;99.90
20057;DHT22;10189;49.546;7.906;2022-10-16T02:35:51;13.50;99.90
20057;DHT22;10189;49.546;7.906;2022-10-16T02:38:18;13.50;99.90
20057;DHT22;10189;49.546;7.906;2022-10-16T02:40:46;13.50;99.90
20057;DHT22;10189;49.546;7.906;2022-10-16T02:43:13;13.50;99.90
20057;DHT22;10189;49.546;7.906;2022-10-16T02:45:39;13.50;99.90
20057;DHT22;10189;49.546;7.906;2022-10-16T02:48:05;13.50;99.90
20057;DHT22;10189;49.546;7.906;2022-10-16T02:50:32;13.50;99.90
20057;DHT22;10189;49.546;7.906;2022-10-16T02:52:57;13.50;99.90
20057;DHT22;10189;49.546;7.906;2022-10-16T02:55:23;13.50;99.90
20057;DHT22;10189;49.546;7.906;2022-10-16T02:57:50;13.50;99.90
20057;DHT22;10189;49.546;7.906;2022-10-16T03:00:16;13.50;99.90
20057;DHT22;10189;49.546;7.906;2022-10-16T03:02:43;13.50;99.90
20057;DHT22;10189;49.546;7.906;2022-10-16T03:05:10;13.50;99.90
20057;DHT22;10189;49.546;7.906;2022-10-16T03:07:36;13.50;99.90
20057;DHT22;10189;49.546;7.906;2022-10-16T03:10:02;13.50;99.90
20057;DHT22;10189;49.546;7.906;2022-10-16T03:12:28;13.50;99.90
20057;DHT22;10189;49.546;7.906;2022-10-16T03:14:55;13.50;99.90
20057;DHT22;10189;49.546;7.906;2022-10-16T03:17:23;13.50;99.90
20057;DHT22;10189;49.546;7.906;2022-10-16T03:19:49;13.50;99.90
20057;DHT22;10189;49.546;7.906;2022-10-16T03:22:15;13.50;99.90
20057;DHT22;10189;49.546;7.906;2022-10-16T03:24:41;13.50;99.90
20057;DHT22;10189;49.546;7.906;2022-10-16T03:27:07;13.50;99.90
20057;DHT22;10189;49.546;7.906;2022-10-16T03:29:33;13.50;99.90
20057;DHT22;10189;49.546;7.906;2022-10-16T03:32:00;13.50;99.90
20057;DHT22;10189;49.546;7.906;2022-10-16T03:34:26;13.50;99.90
20057;DHT22;10189;49.546;7.906;2022-10-16T03:36:52;13.50;99.90
20057;DHT22;10189;49.546;7.906;2022-10-16T03:39:18;13.60;99.90
20057;DHT22;10189;49.546;7.906;2022-10-16T03:41:44;13.60;99.90
20057;DHT22;10189;49.546;7.906;2022-10-16T03:44:12;13.60;99.90
20057;DHT22;10189;49.546;7.906;2022-10-16T03:46:38;13.60;99.90
20057;DHT22;10189;49.546;7.906;2022-10-16T03:49:04;13.60;99.90
20057;DHT22;10189;49.546;7.906;2022-10-16T03:51:30;13.60;99.90
20057;DHT22;10189;49.546;7.906;2022-10-16T03:53:56;13.60;99.90
20057;DHT22;10189;49.546;7.906;2022-10-16T03:56:22;13.70;99.90
20057;DHT22;10189;49.546;7.906;2022-10-16T03:58:48;13.80;99.90
20057;DHT22;10189;49.546;7.906;2022-10-16T04:01:14;13.80;99.90
20057;DHT22;10189;49.546;7.906;2022-10-16T04:03:40;13.80;99.90
20057;DHT22;10189;49.546;7.906;2022-10-16T04:06:05;13.70;99.90
20057;DHT22;10189;49.546;7.906;2022-10-16T04:08:31;13.70;99.90
20057;DHT22;10189;49.546;7.906;2022-10-16T04:11:00;13.70;99.90
20057;DHT22;10189;49.546;7.906;2022-10-16T04:13:27;13.70;99.90
20057;DHT22;10189;49.546;7.906;2022-10-16T04:15:52;13.70;99.90
20057;DHT22;10189;49.546;7.906;2022-10-16T04:18:18;13.70;99.90
20057;DHT22;10189;49.546;7.906;2022-10-16T04:20:44;13.70;99.90
20057;DHT22;10189;49.546;7.906;2022-10-16T04:23:10;13.70;99.90
20057;DHT22;10189;49.546;7.906;2022-10-16T04:25:36;13.80;99.90
20057;DHT22;10189;49.546;7.906;2022-10-16T04:28:02;13.90;99.90
20057;DHT22;10189;49.546;7.906;2022-10-16T04:30:28;13.90;99.90
20057;DHT22;10189;49.546;7.906;2022-10-16T04:32:54;13.90;99.90
20057;DHT22;10189;49.546;7.906;2022-10-16T04:35:21;13.80;99.90
20057;DHT22;10189;49.546;7.906;2022-10-16T04:37:47;13.80;99.90
20057;DHT22;10189;49.546;7.906;2022-10-16T04:40:13;13.80;99.90
20057;DHT22;10189;49.546;7.906;2022-10-16T04:42:40;13.70;99.90
20057;DHT22;10189;49.546;7.906;2022-10-16T04:45:07;13.70;99.90
20057;DHT22;10189;49.546;7.906;2022-10-16T04:47:33;13.60;99.90
20057;DHT22;10189;49.546;7.906;2022-10-16T04:49:59;13.50;99.90
20057;DHT22;10189;49.546;7.906;2022-10-16T04:52:28;13.50;99.90
20057;DHT22;10189;49.546;7.906;2022-10-16T04:54:54;13.50;99.90
20057;DHT22;10189;49.546;7.906;2022-10-16T04:57:21;13.40;99.90
20057;DHT22;10189;49.546;7.906;2022-10-16T04:59:47;13.30;99.90
20057;DHT22;10189;49.546;7.906;2022-10-16T05:02:13;13.30;99.90
20057;DHT22;10189;49.546;7.906;2022-10-16T05:04:39;13.20;99.90
20057;DHT22;10189;49.546;7.906;2022-10-16T05:07:05;13.10;99.90
20057;DHT22;10189;49.546;7.906;2022-10-16T05:09:30;13.10;99.90
20057;DHT22;10189;49.546;7.906;2022-10-16T05:11:56;13.00;99.90
20057;DHT22;10189;49.546;7.906;2022-10-16T05:14:22;13.00;99.90
20057;DHT22;10189;49.546;7.906;2022-10-16T05:16:48;12.90;99.90
20057;DHT22;10189;49.546;7.906;2022-10-16T05:19:14;12.90;99.90
20057;DHT22;10189;49.546;7.906;2022-10-16T05:21:40;12.80;99.90
20057;DHT22;10189;49.546;7.906;2022-10-16T05:24:06;12.90;99.90
20057;DHT22;10189;49.546;7.906;2022-10-16T05:26:32;12.90;99.90
20057;DHT22;10189;49.546;7.906;2022-10-16T05:28:58;12.90;99.90
20057;DHT22;10189;49.546;7.906;2022-10-16T05:31:24;13.00;99.90
20057;DHT22;10189;49.546;7.906;2022-10-16T05:33:50;13.00;99.90
20057;DHT22;10189;49.546;7.906;2022-10-16T05:36:15;13.00;99.90
20057;DHT22;10189;49.546;7.906;2022-10-16T05:38:44;13.10;99.90
20057;DHT22;10189;49.546;7.906;2022-10-16T05:41:10;13.10;99.90
20057;DHT22;10189;49.546;7.906;2022-10-16T05:43:36;13.10;99.90
20057;DHT22;10189;49.546;7.906;2022-10-16T05:46:05;13.10;99.90
20057;DHT22;10189;49.546;7.906;2022-10-16T05:48:32;13.10;99.90
20057;DHT22;10189;49.546;7.906;2022-10-16T05:51:00;13.10;99.90
20057;DHT22;10189;49.546;7.906;2022-10-16T05:53:30;13.10;99.90
20057;DHT22;10189;49.546;7.906;2022-10-16T05:55:57;13.10;99.90
20057;DHT22;10189;49.546;7.906;2022-10-16T05:58:24;13.20;99.90
20057;DHT22;10189;49.546;7.906;2022-10-16T06:00:55;13.20;99.90
20057;DHT22;10189;49.546;7.906;2022-10-16T06:03:23;13.20;99.90
20057;DHT22;10189;49.546;7.906;2022-10-16T06:05:49;13.20;99.90
20057;DHT22;10189;49.546;7.906;2022-10-16T06:08:15;13.20;99.90
20057;DHT22;10189;49.546;7.906;2022-10-16T06:10:42;13.20;99.90
20057;DHT22;10189;49.546;7.906;2022-10-16T06:13:09;13.20;99.90
20057;DHT22;10189;49.546;7.906;2022-10-16T06:15:36;13.30;99.90
20057;DHT22;10189;49.546;7.906;2022-10-16T06:18:01;13.30;99.90
20057;DHT22;10189;49.546;7.906;2022-10-16T06:20:27;13.40;99.90
20057;DHT22;10189;49.546;7.906;2022-10-16T06:22:53;13.40;99.90
20057;DHT22;10189;49.546;7.906;2022-10-16T06:25:19;13.40;99.90
20057;DHT22;10189;49.546;7.906;2022-10-16T06:27:45;13.40;99.90
20057;DHT22;10189;49.546;7.906;2022-10-16T06:30:11;13.40;99.90
20057;DHT22;10189;49.546;7.906;2022-10-16T06:32:37;13.40;99.90
20057;DHT22;10189;49.546;7.906;2022-10-16T06:35:03;13.40;99.90
20057;DHT22;10189;49.546;7.906;2022-10-16T06:37:29;13.40;99.90
20057;DHT22;10189;49.546;7.906;2022-10-16T06:39:55;13.50;99.90
20057;DHT22;10189;49.546;7.906;2022-10-16T06:42:20;13.50;99.90
20057;DHT22;10189;49.546;7.906;2022-10-16T06:44:46;13.60;99.90
20057;DHT22;10189;49.546;7.906;2022-10-16T06:47:12;13.60;99.90
20057;DHT22;10189;49.546;7.906;2022-10-16T06:49:38;13.50;99.90
20057;DHT22;10189;49.546;7.906;2022-10-16T06:52:04;13.60;99.90
20057;DHT22;10189;49.546;7.906;2022-10-16T06:54:30;13.60;99.90
20057;DHT22;10189;49.546;7.906;2022-10-16T06:56:56;13.60;99.90
20057;DHT22;10189;49.546;7.906;2022-10-16T06:59:22;13.60;99.90
20057;DHT22;10189;49.546;7.906;2022-10-16T07:01:48;13.70;99.90
20057;DHT22;10189;49.546;7.906;2022-10-16T07:04:14;13.70;99.90
20057;DHT22;10189;49.546;7.906;2022-10-16T07:06:40;13.80;99.90
20057;DHT22;10189;49.546;7.906;2022-10-16T07:09:09;13.90;99.90
20057;DHT22;10189;49.546;7.906;2022-10-16T07:11:40;14.00;99.90
20057;DHT22;10189;49.546;7.906;2022-10-16T07:14:18;14.10;99.90
20057;DHT22;10189;49.546;7.906;2022-10-16T07:16:46;14.10;99.90
20057;DHT22;10189;49.546;7.906;2022-10-16T07:19:12;14.20;99.90
20057;DHT22;10189;49.546;7.906;2022-10-16T07:21:41;14.40;99.90
20057;DHT22;10189;49.546;7.906;2022-10-16T07:24:12;14.40;99.90
20057;DHT22;10189;49.546;7.906;2022-10-16T07:26:39;14.50;99.90
20057;DHT22;10189;49.546;7.906;2022-10-16T07:29:20;14.50;99.90
20057;DHT22;10189;49.546;7.906;2022-10-16T07:31:48;14.60;99.90
20057;DHT22;10189;49.546;7.906;2022-10-16T07:34:16;14.60;99.90
20057;DHT22;10189;49.546;7.906;2022-10-16T07:36:43;14.60;99.90
20057;DHT22;10189;49.546;7.906;2022-10-16T07:39:09;14.60;99.90
20057;DHT22;10189;49.546;7.906;2022-10-16T07:41:35;14.50;99.90
20057;DHT22;10189;49.546;7.906;2022-10-16T07:44:02;14.50;99.90
20057;DHT22;10189;49.546;7.906;2022-10-16T07:46:29;14.40;99.90
20057;DHT22;10189;49.546;7.906;2022-10-16T07:48:55;14.40;99.90
20057;DHT22;10189;49.546;7.906;2022-10-16T07:51:23;14.30;99.90
20057;DHT22;10189;49.546;7.906;2022-10-16T07:53:50;14.30;99.90
20057;DHT22;10189;49.546;7.906;2022-10-16T07:56:18;14.30;99.90
20057;DHT22;10189;49.546;7.906;2022-10-16T07:58:45;14.30;99.90
20057;DHT22;10189;49.546;7.906;2022-10-16T08:01:13;14.20;99.90
20057;DHT22;10189;49.546;7.906;2022-10-16T08:03:44;14.10;99.90
20057;DHT22;10189;49.546;7.906;2022-10-16T08:06:11;14.10;99.90
20057;DHT22;10189;49.546;7.906;2022-10-16T08:08:37;14.10;99.90
20057;DHT22;10189;49.546;7.906;2022-10-16T08:11:03;14.10;99.90
20057;DHT22;10189;49.546;7.906;2022-10-16T08:13:30;14.10;99.90
20057;DHT22;10189;49.546;7.906;2022-10-16T08:15:56;14.10;99.90
20057;DHT22;10189;49.546;7.906;2022-10-16T08:18:22;14.20;99.90
20057;DHT22;10189;49.546;7.906;2022-10-16T08:20:58;14.20;99.90
20057;DHT22;10189;49.546;7.906;2022-10-16T08:23:27;14.30;99.90
20057;DHT22;10189;49.546;7.906;2022-10-16T08:25:54;14.50;99.90
20057;DHT22;10189;49.546;7.906;2022-10-16T08:28:22;14.50;99.90
20057;DHT22;10189;49.546;7.906;2022-10-16T08:30:48;14.70;99.90
20057;DHT22;10189;49.546;7.906;2022-10-16T08:33:14;14.90;99.90
20057;DHT22;10189;49.546;7.906;2022-10-16T08:35:40;15.10;99.90
20057;DHT22;10189;49.546;7.906;2022-10-16T08:38:06;15.20;99.90
20057;DHT22;10189;49.546;7.906;2022-10-16T08:40:34;15.30;99.90
20057;DHT22;10189;49.546;7.906;2022-10-16T08:49:08;15.80;99.90
20057;DHT22;10189;49.546;7.906;2022-10-16T08:51:39;16.00;99.90
20057;DHT22;10189;49.546;7.906;2022-10-16T08:54:28;16.20;99.90
20057;DHT22;10189;49.546;7.906;2022-10-16T08:56:57;16.40;99.10
20057;DHT22;10189;49.546;7.906;2022-10-16T08:59:32;16.60;95.90
20057;DHT22;10189;49.546;7.906;2022-10-16T09:01:58;16.80;95.90
20057;DHT22;10189;49.546;7.906;2022-10-16T09:07:02;17.20;92.80
20057;DHT22;10189;49.546;7.906;2022-10-16T09:10:04;17.40;91.90
20057;DHT22;10189;49.546;7.906;2022-10-16T09:15:23;17.40;90.80
20057;DHT22;10189;49.546;7.906;2022-10-16T09:20:50;18.00;89.90
20057;DHT22;10189;49.546;7.906;2022-10-16T09:23:28;18.20;86.80
20057;DHT22;10189;49.546;7.906;2022-10-16T09:25:56;18.30;88.70
20057;DHT22;10189;49.546;7.906;2022-10-16T09:28:24;18.40;86.90
20057;DHT22;10189;49.546;7.906;2022-10-16T09:30:50;18.50;88.90
20057;DHT22;10189;49.546;7.906;2022-10-16T09:33:19;18.60;87.30
20057;DHT22;10189;49.546;7.906;2022-10-16T09:35:57;18.60;87.40
20057;DHT22;10189;49.546;7.906;2022-10-16T09:38:34;18.50;86.00
20057;DHT22;10189;49.546;7.906;2022-10-16T09:41:17;18.60;86.30
20057;DHT22;10189;49.546;7.906;2022-10-16T09:43:55;18.70;87.60
20057;DHT22;10189;49.546;7.906;2022-10-16T09:46:31;18.80;86.40
20057;DHT22;10189;49.546;7.906;2022-10-16T09:51:50;18.60;86.00
20057;DHT22;10189;49.546;7.906;2022-10-16T09:54:19;18.40;85.60
20057;DHT22;10189;49.546;7.906;2022-10-16T09:56:47;18.30;86.00
20057;DHT22;10189;49.546;7.906;2022-10-16T09:59:21;18.30;86.50
20057;DHT22;10189;49.546;7.906;2022-10-16T10:01:53;18.40;86.10
20057;DHT22;10189;49.546;7.906;2022-10-16T10:04:23;18.50;86.00
20057;DHT22;10189;49.546;7.906;2022-10-16T10:06:55;18.60;85.90
20057;DHT22;10189;49.546;7.906;2022-10-16T10:09:25;18.80;85.20
20057;DHT22;10189;49.546;7.906;2022-10-16T10:12:03;19.00;84.30
20057;DHT22;10189;49.546;7.906;2022-10-16T10:14:39;19.00;84.30
20057;DHT22;10189;49.546;7.906;2022-10-16T10:17:21;19.00;83.80
20057;DHT22;10189;49.546;7.906;2022-10-16T10:19:59;19.10;83.20
20057;DHT22;10189;49.546;7.906;2022-10-16T10:22:41;19.00;83.90
20057;DHT22;10189;49.546;7.906;2022-10-16T10:39:05;19.00;84.40
20057;DHT22;10189;49.546;7.906;2022-10-16T11:11:02;19.10;85.90
20057;DHT22;10189;49.546;7.906;2022-10-16T11:16:45;19.40;84.00
20057;DHT22;10189;49.546;7.906;2022-10-16T11:19:47;19.60;83.70
20057;DHT22;10189;49.546;7.906;2022-10-16T11:22:37;19.80;82.30
20057;DHT22;10189;49.546;7.906;2022-10-16T11:25:28;19.90;82.50
20057;DHT22;10189;49.546;7.906;2022-10-16T11:28:15;19.90;82.40
20057;DHT22;10189;49.546;7.906;2022-10-16T11:34:09;19.80;82.50
20057;DHT22;10189;49.546;7.906;2022-10-16T11:42:25;20.20;81.40
20057;DHT22;10189;49.546;7.906;2022-10-16T11:45:03;20.50;80.30
20057;DHT22;10189;49.546;7.906;2022-10-16T11:53:24;21.20;76.80
20057;DHT22;10189;49.546;7.906;2022-10-16T11:56:17;21.70;76.10
20057;DHT22;10189;49.546;7.906;2022-10-16T12:07:36;21.00;75.60
20057;DHT22;10189;49.546;7.906;2022-10-16T12:10:21;21.10;75.00
20057;DHT22;10189;49.546;7.906;2022-10-16T12:12:49;21.00;75.50
20057;DHT22;10189;49.546;7.906;2022-10-16T12:15:20;20.80;74.40
20057;DHT22;10189;49.546;7.906;2022-10-16T12:17:49;20.60;76.90
20057;DHT22;10189;49.546;7.906;2022-10-16T12:20:31;20.40;77.40
20057;DHT22;10189;49.546;7.906;2022-10-16T12:23:04;20.50;77.50
20057;DHT22;10189;49.546;7.906;2022-10-16T12:25:36;21.00;76.80
20057;DHT22;10189;49.546;7.906;2022-10-16T12:30:41;21.30;75.90
20057;DHT22;10189;49.546;7.906;2022-10-16T12:33:25;21.30;74.70
20057;DHT22;10189;49.546;7.906;2022-10-16T12:35:59;21.30;74.00
20057;DHT22;10189;49.546;7.906;2022-10-16T12:41:09;21.10;74.20
20057;DHT22;10189;49.546;7.906;2022-10-16T12:43:41;21.00;74.20
20057;DHT22;10189;49.546;7.906;2022-10-16T12:48:35;20.80;73.90
20057;DHT22;10189;49.546;7.906;2022-10-16T13:00:04;20.60;75.30
20057;DHT22;10189;49.546;7.906;2022-10-16T13:17:40;20.00;78.50
20057;DHT22;10189;49.546;7.906;2022-10-16T13:26:44;20.50;77.30
20057;DHT22;10189;49.546;7.906;2022-10-16T13:29:16;20.40;76.30
20057;DHT22;10189;49.546;7.906;2022-10-16T13:31:43;20.50;76.70
20057;DHT22;10189;49.546;7.906;2022-10-16T13:34:18;20.70;76.10
20057;DHT22;10189;49.546;7.906;2022-10-16T13:36:49;20.70;75.20
20057;DHT22;10189;49.546;7.906;2022-10-16T13:39:30;20.80;75.30
20057;DHT22;10189;49.546;7.906;2022-10-16T13:42:12;20.80;75.50
20057;DHT22;10189;49.546;7.906;2022-10-16T13:44:50;20.70;76.20
20057;DHT22;10189;49.546;7.906;2022-10-16T13:47:23;20.70;75.60
20057;DHT22;10189;49.546;7.906;2022-10-16T13:50:17;20.60;75.60
20057;DHT22;10189;49.546;7.906;2022-10-16T13:52:44;20.40;76.70
20057;DHT22;10189;49.546;7.906;2022-10-16T13:55:15;20.20;77.30
20057;DHT22;10189;49.546;7.906;2022-10-16T13:57:43;20.10;77.50
20057;DHT22;10189;49.546;7.906;2022-10-16T14:00:22;20.10;79.30
20057;DHT22;10189;49.546;7.906;2022-10-16T14:03:01;20.20;80.60
20057;DHT22;10189;49.546;7.906;2022-10-16T14:05:29;20.20;80.40
20057;DHT22;10189;49.546;7.906;2022-10-16T14:07:56;20.20;80.00
20057;DHT22;10189;49.546;7.906;2022-10-16T14:10:25;20.20;81.10
20057;DHT22;10189;49.546;7.906;2022-10-16T14:13:04;20.10;81.80
20057;DHT22;10189;49.546;7.906;2022-10-16T14:15:33;20.10;82.40
20057;DHT22;10189;49.546;7.906;2022-10-16T14:18:02;20.20;83.10
20057;DHT22;10189;49.546;7.906;2022-10-16T14:20:33;20.20;83.60
20057;DHT22;10189;49.546;7.906;2022-10-16T14:23:23;20.30;83.60
20057;DHT22;10189;49.546;7.906;2022-10-16T14:26:13;20.40;83.50
20057;DHT22;10189;49.546;7.906;2022-10-16T14:28:42;20.30;83.20
20057;DHT22;10189;49.546;7.906;2022-10-16T14:31:35;20.40;83.30
20057;DHT22;10189;49.546;7.906;2022-10-16T14:34:02;20.30;83.50
20057;DHT22;10189;49.546;7.906;2022-10-16T14:36:29;20.20;83.80
20057;DHT22;10189;49.546;7.906;2022-10-16T14:39:13;20.10;83.00
20057;DHT22;10189;49.546;7.906;2022-10-16T14:41:46;20.00;83.90
20057;DHT22;10189;49.546;7.906;2022-10-16T14:44:15;20.00;84.00
20057;DHT22;10189;49.546;7.906;2022-10-16T14:46:44;20.10;83.70
20057;DHT22;10189;49.546;7.906;2022-10-16T14:51:38;20.10;82.70
20057;DHT22;10189;49.546;7.906;2022-10-16T14:54:11;20.10;82.80
20057;DHT22;10189;49.546;7.906;2022-10-16T15:02:33;20.20;82.00
20057;DHT22;10189;49.546;7.906;2022-10-16T15:05:22;20.10;82.60
20057;DHT22;10189;49.546;7.906;2022-10-16T15:07:51;20.00;81.80
20057;DHT22;10189;49.546;7.906;2022-10-16T15:10:25;19.90;81.90
20057;DHT22;10189;49.546;7.906;2022-10-16T15:12:54;19.80;81.90
20057;DHT22;10189;49.546;7.906;2022-10-16T15:17:55;19.60;81.90
20057;DHT22;10189;49.546;7.906;2022-10-16T15:20:28;19.50;82.90
20057;DHT22;10189;49.546;7.906;2022-10-16T15:22:57;19.50;83.20
20057;DHT22;10189;49.546;7.906;2022-10-16T15:25:35;19.40;82.40
20057;DHT22;10189;49.546;7.906;2022-10-16T15:28:05;19.30;83.10
20057;DHT22;10189;49.546;7.906;2022-10-16T15:30:32;19.20;83.30
20057;DHT22;10189;49.546;7.906;2022-10-16T15:32:59;19.10;83.50
20057;DHT22;10189;49.546;7.906;2022-10-16T15:35:25;19.00;83.90
20057;DHT22;10189;49.546;7.906;2022-10-16T15:37:51;18.90;85.00
20057;DHT22;10189;49.546;7.906;2022-10-16T15:40:18;18.80;85.50
20057;DHT22;10189;49.546;7.906;2022-10-16T15:42:45;18.80;86.10
20057;DHT22;10189;49.546;7.906;2022-10-16T15:45:12;18.70;86.60
20057;DHT22;10189;49.546;7.906;2022-10-16T15:47:41;18.70;87.00
20057;DHT22;10189;49.546;7.906;2022-10-16T15:50:09;18.80;87.70
20057;DHT22;10189;49.546;7.906;2022-10-16T15:52:37;18.80;87.90
20057;DHT22;10189;49.546;7.906;2022-10-16T15:55:09;18.70;88.20
20057;DHT22;10189;49.546;7.906;2022-10-16T15:57:36;18.60;88.90
20057;DHT22;10189;49.546;7.906;2022-10-16T16:00:09;18.50;89.90
20057;DHT22;10189;49.546;7.906;2022-10-16T16:02:43;18.30;90.90
20057;DHT22;10189;49.546;7.906;2022-10-16T16:05:10;18.20;91.70
20057;DHT22;10189;49.546;7.906;2022-10-16T16:07:38;18.10;92.00
20057;DHT22;10189;49.546;7.906;2022-10-16T16:10:07;18.00;92.50
20057;DHT22;10189;49.546;7.906;2022-10-16T16:12:35;17.90;93.00
20057;DHT22;10189;49.546;7.906;2022-10-16T16:15:06;17.90;93.40
20057;DHT22;10189;49.546;7.906;2022-10-16T16:17:35;17.80;93.60
20057;DHT22;10189;49.546;7.906;2022-10-16T16:20:03;17.70;93.90
20057;DHT22;10189;49.546;7.906;2022-10-16T16:22:30;17.60;94.20
20057;DHT22;10189;49.546;7.906;2022-10-16T16:24:56;17.60;94.60
20057;DHT22;10189;49.546;7.906;2022-10-16T16:27:22;17.40;94.80
20057;DHT22;10189;49.546;7.906;2022-10-16T16:29:50;17.30;95.10
20057;DHT22;10189;49.546;7.906;2022-10-16T16:32:16;17.20;95.50
20057;DHT22;10189;49.546;7.906;2022-10-16T16:34:42;17.00;95.80
20057;DHT22;10189;49.546;7.906;2022-10-16T16:37:08;16.90;96.10
20057;DHT22;10189;49.546;7.906;2022-10-16T16:39:34;16.70;96.50
20057;DHT22;10189;49.546;7.906;2022-10-16T16:42:00;16.60;96.80
20057;DHT22;10189;49.546;7.906;2022-10-16T16:44:26;16.40;97.20
20057;DHT22;10189;49.546;7.906;2022-10-16T16:46:52;16.20;97.80
20057;DHT22;10189;49.546;7.906;2022-10-16T16:49:18;16.10;98.40
20057;DHT22;10189;49.546;7.906;2022-10-16T16:51:44;15.90;98.90
20057;DHT22;10189;49.546;7.906;2022-10-16T16:54:10;15.80;99.60
20057;DHT22;10189;49.546;7.906;2022-10-16T16:56:38;15.60;99.90
20057;DHT22;10189;49.546;7.906;2022-10-16T16:59:13;15.50;99.90
20057;DHT22;10189;49.546;7.906;2022-10-16T17:01:40;15.30;99.90
20057;DHT22;10189;49.546;7.906;2022-10-16T17:04:07;15.20;99.90
20057;DHT22;10189;49.546;7.906;2022-10-16T17:06:33;15.10;99.90
20057;DHT22;10189;49.546;7.906;2022-10-16T17:09:02;15.00;99.90
20057;DHT22;10189;49.546;7.906;2022-10-16T17:11:29;15.00;99.90
20057;DHT22;10189;49.546;7.906;2022-10-16T17:13:57;14.90;99.90
20057;DHT22;10189;49.546;7.906;2022-10-16T17:16:27;14.80;99.90
20057;DHT22;10189;49.546;7.906;2022-10-16T17:18:59;14.80;99.90
20057;DHT22;10189;49.546;7.906;2022-10-16T17:21:30;14.80;99.90
20057;DHT22;10189;49.546;7.906;2022-10-16T17:23:57;14.70;99.90
20057;DHT22;10189;49.546;7.906;2022-10-16T17:26:24;14.70;99.90
20057;DHT22;10189;49.546;7.906;2022-10-16T17:28:52;14.60;99.90
20057;DHT22;10189;49.546;7.906;2022-10-16T17:31:28;14.60;99.90
20057;DHT22;10189;49.546;7.906;2022-10-16T17:33:57;14.60;99.90
20057;DHT22;10189;49.546;7.906;2022-10-16T17:36:24;14.50;99.90
20057;DHT22;10189;49.546;7.906;2022-10-16T17:38:54;14.50;99.90
20057;DHT22;10189;49.546;7.906;2022-10-16T17:41:23;14.50;99.90
20057;DHT22;10189;49.546;7.906;2022-10-16T17:43:50;14.40;99.90
20057;DHT22;10189;49.546;7.906;2022-10-16T17:46:19;14.40;99.90
20057;DHT22;10189;49.546;7.906;2022-10-16T17:48:49;14.40;99.90
20057;DHT22;10189;49.546;7.906;2022-10-16T17:51:22;14.40;99.90
20057;DHT22;10189;49.546;7.906;2022-10-16T17:53:55;14.40;99.90
20057;DHT22;10189;49.546;7.906;2022-10-16T17:56:24;14.40;99.90
20057;DHT22;10189;49.546;7.906;2022-10-16T17:58:53;14.40;99.90
20057;DHT22;10189;49.546;7.906;2022-10-16T18:01:27;14.30;99.90
20057;DHT22;10189;49.546;7.906;2022-10-16T18:04:07;14.30;99.90
20057;DHT22;10189;49.546;7.906;2022-10-16T18:06:37;14.20;99.90
20057;DHT22;10189;49.546;7.906;2022-10-16T18:09:06;14.10;99.90
20057;DHT22;10189;49.546;7.906;2022-10-16T18:11:33;14.10;99.90
20057;DHT22;10189;49.546;7.906;2022-10-16T18:13:59;14.10;99.90
20057;DHT22;10189;49.546;7.906;2022-10-16T18:16:28;14.00;99.90
20057;DHT22;10189;49.546;7.906;2022-10-16T18:18:56;13.90;99.90
20057;DHT22;10189;49.546;7.906;2022-10-16T18:21:23;13.90;99.90
20057;DHT22;10189;49.546;7.906;2022-10-16T18:23:54;13.90;99.90
20057;DHT22;10189;49.546;7.906;2022-10-16T18:26:22;13.90;99.90